Time;durP1;ratioP1;P1;durP2;ratioP2;P2;SDS_P1;SDS_P2;PMS_P1;PMS_P2;Temp;Humidity;BMP_temperature;BMP_pressure;BME280_temperature;BME280_humidity;BME280_pressure;Samples;Min_cycle;Max_cycle;Signal;HPM_P1;HPM_P2
2021/01/12 00:00:32;;;;;;;70.35;41.05;;;;;;;-1.83;80.39;100325.80;1708754;82;25683;-80
2021/01/12 00:03:00;;;;;;;76.50;42.78;;;;;;;-1.85;80.47;100325.51;1711865;83;26301;-79
2021/01/12 00:05:34;;;;;;;73.92;41.53;;;;;;;-1.84;80.50;100317.72;1711832;83;25778;-80
2021/01/12 00:08:01;;;;;;;71.53;40.17;;;;;;;-1.87;80.39;100314.05;1708646;83;25713;-80
2021/01/12 00:10:27;;;;;;;73.22;40.88;;;;;;;-1.84;80.50;100311.31;1712548;83;25668;-80
2021/01/12 00:12:54;;;;;;;78.20;41.88;;;;;;;-1.81;80.45;100307.30;1712531;82;25742;-79
2021/01/12 00:15:23;;;;;;;79.50;43.75;;;;;;;-1.77;80.49;100308.39;1670231;83;26394;-79
2021/01/12 00:17:50;;;;;;;73.02;39.65;;;;;;;-1.77;80.31;100309.25;1711809;82;25872;-79
2021/01/12 00:20:17;;;;;;;67.82;38.83;;;;;;;-1.80;80.21;100310.70;1716048;83;25740;-81
2021/01/12 00:22:43;;;;;;;67.22;37.48;;;;;;;-1.82;80.08;100309.96;1714642;83;25841;-79
2021/01/12 00:25:10;;;;;;;71.55;39.33;;;;;;;-1.83;79.89;100301.89;1699970;84;25762;-81
2021/01/12 00:27:36;;;;;;;71.35;38.88;;;;;;;-1.88;80.04;100308.58;1712694;82;25740;-80
2021/01/12 00:30:05;;;;;;;63.83;37.33;;;;;;;-1.86;80.09;100311.03;1715535;83;25785;-81
2021/01/12 00:32:32;;;;;;;67.15;37.78;;;;;;;-1.86;80.06;100300.78;1699207;82;25732;-81
2021/01/12 00:34:58;;;;;;;73.25;39.55;;;;;;;-1.84;80.05;100295.13;1711197;82;25802;-80
2021/01/12 00:37:27;;;;;;;78.62;43.15;;;;;;;-1.84;79.94;100300.25;1715698;83;25761;-80
2021/01/12 00:43:49;;;;;;;;;;;;;;;;;;;;;
2021/01/12 00:46:16;;;;;;;63.55;37.95;;;;;;;-1.82;79.95;100291.57;1545473;91;25625;-81
2021/01/12 00:48:43;;;;;;;71.75;40.90;;;;;;;-1.81;79.88;100298.80;1546052;91;25710;-80
2021/01/12 00:51:12;;;;;;;72.90;40.78;;;;;;;-1.81;80.01;100301.35;1544949;91;25830;-78
2021/01/12 00:53:39;;;;;;;74.77;39.88;;;;;;;-1.83;79.90;100295.05;1527054;91;25857;-81
2021/01/12 00:56:16;;;;;;;76.55;43.23;;;;;;;-1.89;79.75;100299.22;1539811;91;26783;-80
2021/01/12 00:58:43;;;;;;;78.15;41.15;;;;;;;-1.94;79.80;100289.69;1551637;91;26511;-80
2021/01/12 01:01:09;;;;;;;72.30;41.85;;;;;;;-1.96;79.85;100281.30;1553482;91;25866;-81
2021/01/12 01:03:36;;;;;;;68.57;38.00;;;;;;;-2.01;79.76;100282.83;1541700;91;25956;-80
2021/01/12 01:06:07;;;;;;;71.20;40.52;;;;;;;-2.04;79.78;100275.78;1550836;91;26025;-81
2021/01/12 01:08:34;;;;;;;70.15;41.70;;;;;;;-2.09;79.70;100279.05;1547272;91;26397;-80
2021/01/12 01:11:04;;;;;;;73.50;41.15;;;;;;;-2.09;79.82;100282.43;1540500;91;25972;-80
2021/01/12 01:13:30;;;;;;;69.92;41.98;;;;;;;-2.12;79.90;100279.22;1549722;91;34877;-80
2021/01/12 01:15:57;;;;;;;74.62;42.50;;;;;;;-2.09;79.85;100273.93;1542582;91;25833;-80
2021/01/12 01:18:23;;;;;;;79.40;42.15;;;;;;;-2.17;79.72;100270.52;1550924;91;25913;-80
2021/01/12 01:20:50;;;;;;;70.83;41.68;;;;;;;-2.17;79.90;100262.02;1558045;91;25876;-80
2021/01/12 01:23:17;;;;;;;71.00;40.63;;;;;;;-2.13;79.97;100260.92;1619898;83;26387;-82
2021/01/12 01:25:44;;;;;;;74.82;40.55;;;;;;;-2.16;79.83;100254.69;1707124;82;25786;-81
2021/01/12 01:28:10;;;;;;;70.42;41.80;;;;;;;-2.17;79.90;100250.50;1684236;83;25791;-80
2021/01/12 01:30:36;;;;;;;72.42;38.73;;;;;;;-2.17;79.85;100247.47;1713437;82;25803;-82
2021/01/12 01:33:03;;;;;;;73.05;40.25;;;;;;;-2.17;79.92;100241.53;1690871;83;25846;-80
2021/01/12 01:35:30;;;;;;;71.17;40.40;;;;;;;-2.17;79.89;100231.30;1712795;82;26300;-80
2021/01/12 01:37:57;;;;;;;74.05;38.08;;;;;;;-2.15;79.99;100226.92;1713470;82;25779;-79
2021/01/12 01:40:24;;;;;;;74.27;40.70;;;;;;;-2.16;79.76;100218.85;1680685;83;25289;-80
2021/01/12 01:42:51;;;;;;;69.03;39.83;;;;;;;-2.17;79.84;100215.47;1682802;83;26421;-80
2021/01/12 01:45:19;;;;;;;69.40;37.95;;;;;;;-2.15;79.86;100205.98;1712665;83;25823;-80
2021/01/12 01:47:46;;;;;;;71.37;40.88;;;;;;;-2.18;79.73;100205.30;1714548;82;26180;-80
2021/01/12 01:50:21;;;;;;;70.15;40.50;;;;;;;-2.20;79.70;100207.97;1701922;83;25767;-80
2021/01/12 01:52:55;;;;;;;74.15;42.15;;;;;;;-2.21;79.72;100193.97;1712680;82;25759;-80
2021/01/12 01:55:23;;;;;;;71.42;39.78;;;;;;;-2.26;79.70;100194.25;1715163;82;25916;-80
2021/01/12 01:57:50;;;;;;;66.55;36.15;;;;;;;-2.28;79.62;100193.50;1729409;81;26063;-80
2021/01/12 02:00:20;;;;;;;71.17;38.92;;;;;;;-2.30;79.74;100180.78;1708890;83;25535;-81
2021/01/12 02:03:02;;;;;;;67.00;39.50;;;;;;;-2.34;79.70;100172.92;1706315;82;25809;-82
2021/01/12 02:05:32;;;;;;;62.40;40.45;;;;;;;-2.33;79.77;100169.91;1706764;82;25802;-81
2021/01/12 02:08:10;;;;;;;61.85;37.65;;;;;;;-2.35;79.65;100161.02;1706074;82;25636;-81
2021/01/12 02:10:42;;;;;;;70.80;39.70;;;;;;;-2.39;79.61;100158.28;1716471;82;25478;-82
2021/01/12 02:13:16;;;;;;;65.95;36.73;;;;;;;-2.42;79.67;100150.78;1729320;81;25970;-80
2021/01/12 02:15:45;;;;;;;69.25;36.40;;;;;;;-2.42;79.68;100138.45;1706353;83;25808;-82
2021/01/12 02:18:12;;;;;;;70.65;37.63;;;;;;;-2.47;79.61;100145.09;1715580;82;25769;-81
2021/01/12 02:20:42;;;;;;;63.87;36.35;;;;;;;-2.53;79.52;100142.90;1731238;81;25718;-82
2021/01/12 02:23:12;;;;;;;59.95;37.93;;;;;;;-2.61;79.56;100139.95;1707976;82;25721;-80
2021/01/12 02:25:40;;;;;;;73.72;38.50;;;;;;;-2.65;79.75;100128.23;1713084;82;26592;-80
2021/01/12 02:28:10;;;;;;;61.05;35.35;;;;;;;-2.66;79.87;100123.57;1671969;84;26314;-81
2021/01/12 02:30:38;;;;;;;61.98;36.13;;;;;;;-2.60;79.96;100131.35;1681695;84;26322;-82
2021/01/12 02:33:38;;;;;;;68.05;37.85;;;;;;;-2.60;79.87;100124.95;1698947;82;26660;-81
2021/01/12 02:36:09;;;;;;;61.53;34.57;;;;;;;-2.62;79.97;100119.95;1729266;81;25893;-79
2021/01/12 02:38:36;;;;;;;61.35;33.48;;;;;;;-2.62;79.92;100118.66;1707453;82;25765;-80
2021/01/12 02:41:15;;;;;;;63.08;37.55;;;;;;;-2.65;79.87;100109.86;1716575;82;26274;-82
2021/01/12 02:44:10;;;;;;;65.12;36.13;;;;;;;-2.63;79.85;100105.95;1710457;82;26296;-81
2021/01/12 02:46:38;;;;;;;71.33;38.38;;;;;;;-2.62;80.05;100100.76;1711474;82;26346;-80
2021/01/12 02:49:04;;;;;;;59.55;34.43;;;;;;;-2.56;79.98;100090.63;1718901;82;26360;-80
2021/01/12 02:51:35;;;;;;;64.27;37.38;;;;;;;-2.53;79.92;100075.09;1725653;81;25660;-80
2021/01/12 02:54:01;;;;;;;59.10;33.42;;;;;;;-2.59;79.67;100073.72;1704868;82;26437;-82
2021/01/12 02:56:28;;;;;;;62.70;36.42;;;;;;;-2.57;79.86;100066.76;1707506;82;25834;-81
2021/01/12 02:58:54;;;;;;;59.38;33.13;;;;;;;-2.55;79.76;100056.45;1707516;82;25693;-80
2021/01/12 03:01:21;;;;;;;55.80;32.78;;;;;;;-2.54;79.72;100054.24;1714767;83;25882;-81
2021/01/12 03:03:47;;;;;;;63.20;32.95;;;;;;;-2.52;79.72;100042.20;1713847;82;25791;-82
2021/01/12 03:06:14;;;;;;;60.78;34.92;;;;;;;-2.56;79.60;100044.58;1715951;82;25719;-81
2021/01/12 03:08:40;;;;;;;58.30;34.50;;;;;;;-2.59;79.60;100046.86;1729645;82;25320;-81
2021/01/12 03:11:07;;;;;;;60.58;34.60;;;;;;;-2.58;79.61;100027.21;1715341;83;26393;-81
2021/01/12 03:13:43;;;;;;;58.35;33.55;;;;;;;-2.59;79.66;100023.84;1729079;81;25663;-81
2021/01/12 03:16:09;;;;;;;60.25;34.05;;;;;;;-2.60;79.62;100020.08;1716615;82;25907;-81
2021/01/12 03:18:36;;;;;;;58.60;33.28;;;;;;;-2.62;79.57;100005.27;1715775;83;25750;-81
2021/01/12 03:21:03;;;;;;;53.05;32.65;;;;;;;-2.62;79.57;100002.70;1724448;81;25829;-82
2021/01/12 03:23:29;;;;;;;61.05;33.98;;;;;;;-2.64;79.58;99995.60;1725700;81;26436;-81
2021/01/12 03:26:03;;;;;;;57.58;31.27;;;;;;;-2.63;79.61;99992.13;1715725;82;25745;-81
2021/01/12 03:28:29;;;;;;;56.60;32.93;;;;;;;-2.65;79.54;99990.10;1725726;82;26014;-81
2021/01/12 03:30:56;;;;;;;59.20;33.90;;;;;;;-2.67;79.60;99991.48;1716293;82;25803;-81
2021/01/12 03:33:22;;;;;;;55.28;33.18;;;;;;;-2.68;79.50;99988.08;1715581;82;25775;-81
2021/01/12 03:35:50;;;;;;;58.33;33.98;;;;;;;-2.70;79.50;99988.65;1682998;83;26529;-81
2021/01/12 03:38:16;;;;;;;59.48;34.03;;;;;;;-2.68;79.70;99968.08;1729440;81;26487;-81
2021/01/12 03:40:42;;;;;;;56.42;32.08;;;;;;;-2.61;79.79;99966.00;1715852;82;26443;-81
2021/01/12 03:43:09;;;;;;;58.05;34.50;;;;;;;-2.62;79.51;99963.91;1685702;84;25465;-80
2021/01/12 03:45:35;;;;;;;58.05;33.67;;;;;;;-2.66;79.51;99957.31;1716018;83;25814;-81
2021/01/12 03:48:02;;;;;;;54.67;31.33;;;;;;;-2.66;79.57;99953.48;1715410;83;26846;-81
2021/01/12 03:50:28;;;;;;;57.65;34.25;;;;;;;-2.65;79.57;99951.73;1715908;82;26338;-81
2021/01/12 03:52:55;;;;;;;57.83;32.17;;;;;;;-2.65;79.64;99956.39;1729902;81;25749;-82
2021/01/12 03:55:22;;;;;;;59.27;33.70;;;;;;;-2.64;79.51;99951.66;1706535;82;25834;-82
2021/01/12 03:58:20;;;;;;;53.95;31.87;;;;;;;-2.65;79.55;99961.97;1707036;82;25728;-81
2021/01/12 04:00:46;;;;;;;61.73;32.83;;;;;;;-2.61;79.71;99965.54;1705071;82;25826;-81
2021/01/12 04:03:13;;;;;;;53.95;31.07;;;;;;;-2.57;79.65;99954.66;1702856;82;25730;-81
2021/01/12 04:05:39;;;;;;;56.23;32.42;;;;;;;-2.58;79.59;99950.00;1704934;82;25856;-82
2021/01/12 04:08:10;;;;;;;55.55;33.40;;;;;;;-2.54;79.70;99934.01;1683878;83;26508;-81
2021/01/12 04:10:38;;;;;;;54.40;31.12;;;;;;;-2.53;79.62;99927.53;1711101;83;25794;-82
2021/01/12 04:13:05;;;;;;;53.70;32.48;;;;;;;-2.54;79.48;99918.66;1712218;83;25842;-81
2021/01/12 04:15:31;;;;;;;60.78;34.25;;;;;;;-2.57;79.48;99919.66;1715009;82;25758;-82
2021/01/12 04:17:58;;;;;;;55.40;31.77;;;;;;;-2.56;79.58;99914.93;1711542;82;26275;-80
2021/01/12 04:20:24;;;;;;;60.90;33.23;;;;;;;-2.53;79.59;99912.64;1710225;82;25692;-81
2021/01/12 04:22:51;;;;;;;55.20;31.25;;;;;;;-2.52;79.62;99908.70;1710812;82;25779;-81
2021/01/12 04:25:19;;;;;;;58.75;32.78;;;;;;;-2.52;79.54;99908.70;1711443;82;26414;-80
2021/01/12 04:27:46;;;;;;;57.17;32.53;;;;;;;-2.49;79.64;99909.78;1709163;82;25530;-81
2021/01/12 04:30:14;;;;;;;56.50;34.35;;;;;;;-2.49;79.58;99906.41;1714518;82;25656;-82
2021/01/12 04:32:40;;;;;;;55.17;33.15;;;;;;;-2.44;79.68;99905.68;1683315;83;26287;-81
2021/01/12 04:35:09;;;;;;;62.50;32.65;;;;;;;-2.37;79.70;99904.41;1699281;83;25826;-82
2021/01/12 04:37:35;;;;;;;52.70;32.23;;;;;;;-2.38;79.62;99898.09;1681961;84;25743;-81
2021/01/12 04:40:02;;;;;;;59.03;31.15;;;;;;;-2.39;79.45;99890.88;1681502;85;26699;-81
2021/01/12 04:42:34;;;;;;;53.87;30.85;;;;;;;-2.38;79.56;99881.45;1684520;83;25785;-81
2021/01/12 04:45:02;;;;;;;61.48;34.18;;;;;;;-2.40;79.51;99876.45;1680340;83;25754;-81
2021/01/12 04:47:28;;;;;;;60.03;33.13;;;;;;;-2.40;79.62;99870.05;1691032;83;25885;-81
2021/01/12 04:49:54;;;;;;;59.88;33.53;;;;;;;-2.38;79.56;99864.82;1686762;83;25749;-81
2021/01/12 04:52:21;;;;;;;56.10;31.15;;;;;;;-2.40;79.57;99863.66;1683113;83;26338;-81
2021/01/12 04:54:51;;;;;;;61.25;33.13;;;;;;;-2.40;79.54;99862.80;1694077;83;26360;-82
2021/01/12 04:57:16;;;;;;;61.00;33.85;;;;;;;-2.37;79.66;99861.36;1703158;83;26424;-81
2021/01/12 04:59:44;;;;;;;54.83;32.50;;;;;;;-2.35;79.80;99844.97;1687901;82;25832;-81
2021/01/12 05:02:15;;;;;;;59.53;32.48;;;;;;;-2.36;79.63;99843.34;1702041;82;26378;-82
2021/01/12 05:04:42;;;;;;;64.80;34.80;;;;;;;-2.33;79.73;99848.27;1695542;84;25839;-80
2021/01/12 05:07:10;;;;;;;57.38;31.87;;;;;;;-2.31;79.73;99845.16;1710558;82;26322;-81
2021/01/12 05:09:38;;;;;;;51.77;31.65;;;;;;;-2.31;79.65;99843.06;1700545;82;25941;-82
2021/01/12 05:12:07;;;;;;;58.95;32.50;;;;;;;-2.32;79.81;99832.45;1700462;82;25953;-80
2021/01/12 05:14:37;;;;;;;52.75;30.45;;;;;;;-2.29;79.66;99828.44;1705958;82;26454;-82
2021/01/12 05:17:04;;;;;;;55.23;31.65;;;;;;;-2.33;79.59;99839.30;1701412;82;26336;-81
2021/01/12 05:19:32;;;;;;;61.18;33.48;;;;;;;-2.33;79.64;99831.63;1699831;82;25741;-82
2021/01/12 05:22:02;;;;;;;55.35;30.35;;;;;;;-2.29;79.80;99836.93;1702333;82;25798;-81
2021/01/12 05:24:30;;;;;;;60.95;32.73;;;;;;;-2.22;79.75;99833.98;1701876;83;25714;-81
2021/01/12 05:27:08;;;;;;;56.02;31.15;;;;;;;-2.21;79.63;99835.17;1701194;82;25898;-80
2021/01/12 05:29:38;;;;;;;59.42;34.63;;;;;;;-2.20;79.62;99829.12;1698358;82;25490;-80
2021/01/12 05:32:10;;;;;;;59.30;32.42;;;;;;;-2.19;79.55;99822.27;1699938;82;25811;-80
2021/01/12 05:34:40;;;;;;;58.92;34.18;;;;;;;-2.21;79.55;99818.54;1701371;82;25760;-81
2021/01/12 05:37:09;;;;;;;58.70;32.88;;;;;;;-2.23;79.52;99830.61;1702060;82;25892;-81
2021/01/12 05:39:42;;;;;;;53.78;29.87;;;;;;;-2.17;79.78;99827.66;1699223;82;26484;-80
2021/01/12 05:42:11;;;;;;;62.88;33.25;;;;;;;-2.16;79.51;99831.03;1698070;82;26388;-81
2021/01/12 05:44:40;;;;;;;55.25;32.98;;;;;;;-2.18;79.52;99828.58;1701400;82;25805;-81
2021/01/12 05:47:07;;;;;;;59.42;32.75;;;;;;;-2.14;79.67;99822.33;1697256;83;25650;-81
2021/01/12 05:49:35;;;;;;;65.00;34.80;;;;;;;-2.10;79.68;99813.99;1696742;84;25768;-81
2021/01/12 05:52:04;;;;;;;66.72;34.78;;;;;;;-2.10;79.68;99812.28;1701381;82;25804;-82
2021/01/12 05:54:36;;;;;;;64.00;34.67;;;;;;;-2.06;79.71;99811.14;1699199;82;25880;-83
2021/01/12 05:57:07;;;;;;;65.28;33.05;;;;;;;-2.05;79.49;99810.68;1696925;82;25580;-82
2021/01/12 05:59:37;;;;;;;62.30;35.73;;;;;;;-2.03;79.65;99810.13;1693013;82;25717;-81
2021/01/12 06:02:10;;;;;;;61.13;34.55;;;;;;;-1.97;79.78;99799.48;1704223;82;25810;-80
2021/01/12 06:04:37;;;;;;;64.77;34.85;;;;;;;-1.99;79.53;99800.50;1714360;82;26695;-81
2021/01/12 06:07:05;;;;;;;61.68;34.18;;;;;;;-1.96;79.56;99796.50;1706057;82;25766;-81
2021/01/12 06:09:32;;;;;;;70.10;36.13;;;;;;;-1.98;79.53;99785.06;1706295;83;26002;-81
2021/01/12 06:11:59;;;;;;;61.15;33.92;;;;;;;-1.93;79.67;99783.02;1704998;83;25846;-80
2021/01/12 06:14:28;;;;;;;64.55;33.83;;;;;;;-1.90;79.54;99780.26;1707458;82;25771;-80
2021/01/12 06:16:56;;;;;;;62.08;33.78;;;;;;;-1.90;79.50;99777.70;1703923;84;25811;-82
2021/01/12 06:19:29;;;;;;;75.08;35.60;;;;;;;-1.95;79.34;99772.52;1705959;82;26370;-81
2021/01/12 06:22:06;;;;;;;63.92;32.00;;;;;;;-1.96;79.44;99774.27;1707373;82;25858;-81
2021/01/12 06:24:38;;;;;;;61.48;33.80;;;;;;;-1.95;79.44;99772.52;1703533;83;25842;-82
2021/01/12 06:27:22;;;;;;;64.67;34.38;;;;;;;-1.92;79.57;99771.84;1701276;82;25702;-81
2021/01/12 06:29:50;;;;;;;63.78;34.58;;;;;;;-1.89;79.56;99755.47;1705012;83;25873;-81
2021/01/12 06:32:23;;;;;;;68.87;32.98;;;;;;;-1.84;79.67;99751.68;1705914;82;25999;-82
2021/01/12 06:34:51;;;;;;;62.20;34.33;;;;;;;-1.86;79.37;99748.39;1706542;82;25927;-81
2021/01/12 06:37:20;;;;;;;64.22;35.23;;;;;;;-1.90;79.31;99748.71;1702729;82;25797;-80
2021/01/12 06:39:53;;;;;;;60.10;34.75;;;;;;;-1.91;79.42;99748.33;1704534;82;25788;-81
2021/01/12 06:42:27;;;;;;;64.30;31.93;;;;;;;-1.89;79.53;99744.75;1705102;82;25811;-81
2021/01/12 06:44:57;;;;;;;59.53;31.68;;;;;;;-1.89;79.42;99743.94;1694795;83;25779;-81
2021/01/12 06:47:28;;;;;;;65.47;35.60;;;;;;;-1.85;79.62;99746.20;1706523;82;26392;-82
2021/01/12 06:50:13;;;;;;;58.85;31.77;;;;;;;-1.84;79.40;99743.18;1705420;82;25784;-82
2021/01/12 06:52:44;;;;;;;58.30;33.23;;;;;;;-1.88;79.29;99738.73;1692996;82;25873;-81
2021/01/12 06:55:15;;;;;;;65.00;34.03;;;;;;;-1.91;79.34;99735.53;1705286;82;25746;-81
2021/01/12 06:57:54;;;;;;;59.30;32.73;;;;;;;-1.91;79.53;99731.25;1708150;82;25546;-82
2021/01/12 07:00:23;;;;;;;61.45;32.55;;;;;;;-1.89;79.43;99731.95;1685048;83;26380;-81
2021/01/12 07:02:59;;;;;;;58.28;33.67;;;;;;;-1.92;79.35;99736.47;1722187;82;25870;-81
2021/01/12 07:05:44;;;;;;;62.65;33.10;;;;;;;-1.91;79.47;99737.66;1725245;81;25884;-81
2021/01/12 07:08:12;;;;;;;57.33;32.03;;;;;;;-1.91;79.44;99736.81;1706999;82;26580;-82
2021/01/12 07:10:46;;;;;;;58.63;32.60;;;;;;;-1.90;79.55;99737.19;1715612;82;26504;-82
2021/01/12 07:13:15;;;;;;;56.42;30.80;;;;;;;-1.84;79.69;99732.94;1731780;81;25795;-82
2021/01/12 07:15:46;;;;;;;57.80;33.05;;;;;;;-1.78;79.71;99735.09;1714510;82;25750;-81
2021/01/12 07:18:12;;;;;;;60.43;32.33;;;;;;;-1.76;79.76;99728.13;1704139;82;26013;-82
2021/01/12 07:20:40;;;;;;;55.63;32.33;;;;;;;-1.70;79.75;99721.77;1716584;82;26325;-81
2021/01/12 07:23:13;;;;;;;56.33;31.00;;;;;;;-1.66;79.67;99720.66;1684211;83;25763;-81
2021/01/12 07:25:47;;;;;;;55.25;31.77;;;;;;;-1.68;79.44;99719.47;1709133;82;25801;-81
2021/01/12 07:28:22;;;;;;;55.10;32.15;;;;;;;-1.67;79.52;99712.59;1720734;82;26453;-81
2021/01/12 07:30:52;;;;;;;55.30;31.48;;;;;;;-1.71;79.34;99713.74;1709379;82;25809;-80
2021/01/12 07:33:26;;;;;;;52.85;30.75;;;;;;;-1.74;79.40;99703.23;1714223;83;25687;-80
2021/01/12 07:35:58;;;;;;;56.30;31.93;;;;;;;-1.69;79.64;99696.06;1730561;81;25760;-79
2021/01/12 07:38:28;;;;;;;51.75;29.32;;;;;;;-1.68;79.55;99692.57;1706860;82;26346;-81
2021/01/12 07:41:00;;;;;;;53.03;30.43;;;;;;;-1.64;79.11;99690.61;1700707;82;25487;-80
2021/01/12 07:43:28;;;;;;;57.00;31.75;;;;;;;-1.64;79.11;99690.61;1716027;82;25795;-82
2021/01/12 07:45:56;;;;;;;54.18;30.82;;;;;;;-1.60;79.63;99685.19;1714277;82;25912;-80
2021/01/12 07:48:24;;;;;;;59.67;30.77;;;;;;;-1.59;79.48;99682.16;1714608;82;25777;-82
2021/01/12 07:50:53;;;;;;;49.75;28.40;;;;;;;-1.54;79.55;99674.16;1712048;83;25762;-81
2021/01/12 07:53:20;;;;;;;53.68;28.98;;;;;;;-1.49;79.30;99672.92;1715232;82;25534;-80
2021/01/12 07:55:48;;;;;;;52.30;28.27;;;;;;;-1.48;79.34;99667.33;1719083;81;25860;-81
2021/01/12 07:58:17;;;;;;;47.90;28.25;;;;;;;-1.46;79.30;99669.34;1696246;82;25860;-80
2021/01/12 08:00:50;;;;;;;50.67;27.02;;;;;;;-1.41;79.35;99665.53;1695748;82;25703;-80
2021/01/12 08:03:15;;;;;;;53.85;27.32;;;;;;;-1.39;79.36;99666.72;1695938;82;25859;-81
2021/01/12 08:05:42;;;;;;;46.80;26.30;;;;;;;-1.37;79.29;99670.78;1696601;82;25807;-81
2021/01/12 08:08:10;;;;;;;43.58;25.23;;;;;;;-1.35;79.21;99670.23;1696336;84;25784;-81
2021/01/12 08:10:42;;;;;;;48.55;27.20;;;;;;;-1.29;79.10;99675.39;1695388;82;26381;-82
2021/01/12 08:13:15;;;;;;;44.08;25.60;;;;;;;-1.25;79.16;99669.14;1691552;82;25798;-81
2021/01/12 08:15:43;;;;;;;41.55;23.95;;;;;;;-1.24;78.90;99668.20;1694316;82;26256;-85
2021/01/12 08:18:14;;;;;;;45.20;23.92;;;;;;;-1.21;78.80;99669.27;1697089;82;25754;-80
2021/01/12 08:20:41;;;;;;;39.20;21.80;;;;;;;-1.22;78.54;99665.08;1695520;82;25923;-81
2021/01/12 08:23:11;;;;;;;39.80;22.95;;;;;;;-1.22;78.64;99659.95;1696626;82;25762;-83
2021/01/12 08:25:38;;;;;;;64.25;31.02;;;;;;;-1.17;78.88;99660.45;1696119;82;26583;-81
2021/01/12 08:28:07;;;;;;;68.92;38.70;;;;;;;-1.12;78.75;99660.95;1685589;82;26600;-80
2021/01/12 08:30:35;;;;;;;64.58;40.83;;;;;;;-1.09;78.60;99656.52;1701235;82;25628;-81
2021/01/12 08:33:34;;;;;;;57.45;34.45;;;;;;;-1.03;78.76;99662.52;1702779;82;25755;-81
2021/01/12 08:36:10;;;;;;;49.50;30.23;;;;;;;-1.01;78.46;99652.50;1689574;82;26989;-81
2021/01/12 08:38:39;;;;;;;36.80;21.82;;;;;;;-0.95;78.51;99651.25;1705479;82;26299;-81
2021/01/12 08:41:07;;;;;;;41.37;25.67;;;;;;;-0.94;78.25;99647.74;1705975;82;25761;-81
2021/01/12 08:43:41;;;;;;;39.08;23.80;;;;;;;-0.90;78.30;99637.63;1703943;83;26338;-81
2021/01/12 08:46:07;;;;;;;39.20;21.57;;;;;;;-0.86;78.28;99633.91;1698468;83;25712;-80
2021/01/12 08:48:35;;;;;;;39.73;23.15;;;;;;;-0.80;77.60;99640.34;1705669;82;25875;-81
2021/01/12 08:51:16;;;;;;;35.60;19.90;;;;;;;-0.81;77.82;99636.16;1700546;82;26490;-80
2021/01/12 08:53:49;;;;;;;30.97;18.85;;;;;;;-0.80;77.68;99632.17;1700133;82;26344;-81
2021/01/12 08:56:18;;;;;;;35.03;19.48;;;;;;;-0.84;76.95;99624.36;1688553;82;25888;-82
2021/01/12 08:58:45;;;;;;;36.60;21.00;;;;;;;-0.86;77.21;99617.23;1683745;83;25539;-81
2021/01/12 09:01:28;;;;;;;33.78;19.82;;;;;;;-0.82;77.36;99624.23;1701302;83;25599;-81
2021/01/12 09:04:06;;;;;;;40.03;21.35;;;;;;;-0.77;77.26;99613.18;1712134;82;25792;-82
2021/01/12 09:06:32;;;;;;;35.25;20.57;;;;;;;-0.72;77.47;99610.63;1710945;82;25951;-82
2021/01/12 09:09:13;;;;;;;31.42;18.42;;;;;;;-0.63;77.40;99616.84;1710365;82;25852;-82
2021/01/12 09:11:48;;;;;;;32.85;17.82;;;;;;;-0.56;77.21;99606.48;1710951;82;25558;-81
2021/01/12 09:14:19;;;;;;;32.33;19.60;;;;;;;-0.55;76.96;99597.84;1709320;82;25857;-80
2021/01/12 09:16:46;;;;;;;29.82;18.98;;;;;;;-0.56;76.30;99606.48;1705173;82;25744;-80
2021/01/12 09:19:17;;;;;;;30.97;19.55;;;;;;;-0.58;76.23;99592.13;1704666;82;26451;-82
2021/01/12 09:21:45;;;;;;;35.95;19.00;;;;;;;-0.58;76.55;99592.95;1703958;82;25896;-81
2021/01/12 09:24:20;;;;;;;32.98;18.00;;;;;;;-0.54;76.62;99584.10;1705515;82;26338;-81
2021/01/12 09:26:47;;;;;;;30.97;17.98;;;;;;;-0.53;76.32;99584.45;1705352;82;26617;-81
2021/01/12 09:29:14;;;;;;;31.40;17.02;;;;;;;-0.52;75.71;99577.12;1704682;82;25583;-80
2021/01/12 09:31:48;;;;;;;33.10;18.82;;;;;;;-0.51;75.91;99573.61;1708272;82;25923;-85
2021/01/12 09:34:22;;;;;;;29.82;17.77;;;;;;;-0.46;76.14;99571.99;1706282;82;26312;-83
2021/01/12 09:36:49;;;;;;;32.15;19.17;;;;;;;-0.42;75.93;99568.72;1705125;82;25569;-81
2021/01/12 09:39:15;;;;;;;28.80;17.90;;;;;;;-0.40;75.87;99557.88;1711529;82;25798;-82
2021/01/12 09:41:42;;;;;;;30.48;18.60;;;;;;;-0.33;75.97;99556.03;1710741;82;25746;-82
2021/01/12 09:44:09;;;;;;;26.48;16.12;;;;;;;-0.26;76.16;99558.94;1707132;82;25646;-82
2021/01/12 09:46:37;;;;;;;28.70;17.42;;;;;;;-0.18;75.95;99551.47;1710924;82;25752;-82
2021/01/12 09:49:04;;;;;;;27.02;15.72;;;;;;;-0.13;75.85;99549.85;1711306;82;25515;-82
2021/01/12 09:51:33;;;;;;;29.85;16.52;;;;;;;-0.08;75.58;99546.47;1714963;82;26438;-83
2021/01/12 09:53:59;;;;;;;29.65;16.57;;;;;;;-0.01;75.56;99543.29;1710322;82;25784;-82
2021/01/12 09:56:25;;;;;;;28.92;15.63;;;;;;;0.05;75.64;99536.86;1715115;82;26397;-82
2021/01/12 09:58:53;;;;;;;30.23;16.67;;;;;;;0.10;75.41;99532.66;1729442;81;26440;-81
2021/01/12 10:01:20;;;;;;;27.07;16.73;;;;;;;0.11;75.13;99526.13;1707937;82;26359;-81
2021/01/12 10:03:47;;;;;;;25.72;15.50;;;;;;;0.13;74.87;99526.00;1707359;82;25826;-81
2021/01/12 10:06:27;;;;;;;30.40;15.45;;;;;;;0.12;73.90;99526.47;1714884;82;25300;-81
2021/01/12 10:08:52;;;;;;;29.63;16.50;;;;;;;0.08;73.89;99526.38;1714079;82;25704;-82
2021/01/12 10:11:20;;;;;;;28.27;15.72;;;;;;;0.12;74.46;99515.39;1712806;82;26634;-82
2021/01/12 10:13:47;;;;;;;26.45;15.35;;;;;;;0.17;74.47;99515.38;1714554;82;26414;-81
2021/01/12 10:16:25;;;;;;;28.42;16.05;;;;;;;0.23;74.34;99514.55;1715058;82;26342;-82
2021/01/12 10:18:52;;;;;;;27.98;16.80;;;;;;;0.24;73.73;99511.84;1715887;82;25533;-83
2021/01/12 10:21:19;;;;;;;29.32;15.63;;;;;;;0.25;74.39;99499.84;1730865;81;25596;-82
2021/01/12 10:23:46;;;;;;;26.95;15.03;;;;;;;0.31;74.11;99489.87;1707781;82;25678;-82
2021/01/12 10:26:17;;;;;;;25.72;15.05;;;;;;;0.34;73.44;99484.50;1707674;82;25595;-82
2021/01/12 10:28:46;;;;;;;27.40;15.55;;;;;;;0.34;74.07;99484.50;1707802;82;25787;-82
2021/01/12 10:31:14;;;;;;;26.95;15.93;;;;;;;0.38;73.65;99484.61;1710571;82;25939;-82
2021/01/12 10:33:43;;;;;;;28.90;16.27;;;;;;;0.42;73.49;99483.89;1684999;84;25620;-85
2021/01/12 10:36:14;;;;;;;29.65;16.45;;;;;;;0.44;73.80;99476.41;1715168;82;25775;-83
2021/01/12 10:38:43;;;;;;;28.35;16.57;;;;;;;0.49;73.60;99475.21;1727722;81;25639;-82
2021/01/12 10:41:09;;;;;;;24.37;14.35;;;;;;;0.46;73.13;99473.70;1707753;83;26368;-82
2021/01/12 10:43:36;;;;;;;25.85;14.65;;;;;;;0.48;73.05;99472.30;1708070;82;25654;-82
2021/01/12 10:46:03;;;;;;;25.02;14.70;;;;;;;0.50;73.31;99462.72;1716054;82;25954;-81
2021/01/12 10:48:30;;;;;;;22.65;14.13;;;;;;;0.51;73.49;99464.34;1729273;81;25530;-81
2021/01/12 10:50:56;;;;;;;25.35;15.40;;;;;;;0.51;73.36;99462.58;1706963;82;25874;-81
2021/01/12 10:53:23;;;;;;;21.80;14.55;;;;;;;0.53;73.07;99454.28;1708006;82;25921;-82
2021/01/12 10:55:53;;;;;;;23.85;16.27;;;;;;;0.54;73.53;99457.19;1714711;82;25949;-82
2021/01/12 10:58:19;;;;;;;25.52;15.23;;;;;;;0.58;73.63;99443.64;1713021;82;25571;-82
2021/01/12 11:00:53;;;;;;;29.10;15.50;;;;;;;0.61;73.25;99439.53;1706060;82;26368;-80
2021/01/12 11:03:18;;;;;;;31.62;16.90;;;;;;;0.62;73.24;99436.82;1707989;82;25782;-83
2021/01/12 11:05:47;;;;;;;31.93;17.17;;;;;;;0.69;73.51;99433.77;1707489;82;25813;-82
2021/01/12 11:08:14;;;;;;;32.20;17.65;;;;;;;0.73;73.58;99434.66;1680129;83;26010;-83
2021/01/12 11:10:40;;;;;;;29.07;16.02;;;;;;;0.81;73.27;99432.77;1672334;83;25610;-83
2021/01/12 11:13:07;;;;;;;29.35;17.67;;;;;;;0.83;72.96;99432.98;1686703;83;25605;-84
2021/01/12 11:15:39;;;;;;;28.30;16.37;;;;;;;0.91;73.39;99430.27;1692812;83;25556;-82
2021/01/12 11:18:03;;;;;;;28.27;16.95;;;;;;;0.99;73.36;99424.83;1699961;83;26587;-83
2021/01/12 11:20:30;;;;;;;25.35;16.23;;;;;;;1.04;72.98;99427.03;1714874;82;25664;-84
2021/01/12 11:22:56;;;;;;;29.60;17.35;;;;;;;1.04;72.67;99417.55;1686786;83;25589;-82
2021/01/12 11:25:23;;;;;;;27.37;16.30;;;;;;;1.01;72.73;99412.66;1706670;83;25884;-83
2021/01/12 11:27:50;;;;;;;26.20;15.28;;;;;;;1.00;72.63;99403.77;1701387;83;25497;-83
2021/01/12 11:30:19;;;;;;;26.97;15.32;;;;;;;0.96;72.51;99402.41;1700163;82;26064;-84